Hlavní strana
METAR-TAF:

METAR-TAF

Letiště :

Watauga County Hospital Heliport

Boone, Severní Karolína, Spojené státy americké

zeměpisná šířka: 36-12N, zeměpisná délka: 081-39W, výška: 959 m

Aktuální stav počasí

Zpráva byla vytvořena před 18 minutami, v 10:15 UTC
Bezvětří
Teplota 1°C
Vlhkost vzduchu 100%
Tlak 1019 hPa
Viditelnost: 3.2 km
slabý déšť

METAR: KTNB 241015Z AUTO 00000KT 2SM -RA 01/01 A3009 RMK AO2 P0002 T00110011

Čas: 05:33 (10:33 UTC)


TAF: chybějící

Stav a předpovědi počasí z více než 4 000 letišť (zprávy METAR a TAF).

Červené a žluté tečky na mapě představují dostupné meteorologické stanice.

Když kurzor umístíte na tečku, zobrazí se název stanice.

Pak kliknutím zobrazíte stav a předpověď počasí.

Chcete-li změnit mapu, kliknutím na zelené tlačítko se znaménkem +mapu přiblížíte, kliknutím na zelené tlačítko se znaménkem – mapu oddálíte a kliknutím na zelené šipky přejdete na sousední mapy.


METAR-TAF: